createdAt,value
2023-08-15T00:01:33.965Z,20.60
2023-08-15T00:04:03.291Z,20.50
2023-08-15T00:06:31.229Z,20.40
2023-08-15T00:09:02.103Z,20.40
2023-08-15T00:11:29.989Z,20.50
2023-08-15T00:13:58.310Z,20.40
2023-08-15T00:16:26.580Z,20.30
2023-08-15T00:18:54.589Z,20.20
2023-08-15T00:21:23.885Z,20.10
2023-08-15T00:23:52.174Z,20.00
2023-08-15T00:26:20.176Z,19.90
2023-08-15T00:28:48.073Z,19.80
2023-08-15T00:31:16.006Z,19.80
2023-08-15T00:33:43.897Z,19.70
2023-08-15T00:36:11.742Z,19.70
2023-08-15T00:38:40.952Z,19.70
2023-08-15T00:41:09.009Z,19.70
2023-08-15T00:43:37.058Z,19.60
2023-08-15T00:46:07.806Z,19.70
2023-08-15T00:48:37.041Z,19.60
2023-08-15T00:51:05.212Z,19.60
2023-08-15T00:53:36.158Z,19.70
2023-08-15T00:56:05.917Z,19.70
2023-08-15T00:58:33.998Z,19.60
2023-08-15T01:01:02.175Z,19.70
2023-08-15T01:03:30.492Z,19.70
2023-08-15T01:05:58.859Z,19.70
2023-08-15T01:08:26.813Z,19.80
2023-08-15T01:10:54.717Z,19.80
2023-08-15T01:13:29.912Z,19.80
2023-08-15T01:15:58.204Z,19.70
2023-08-15T01:18:31.158Z,19.70
2023-08-15T01:21:00.496Z,19.70
2023-08-15T01:23:42.821Z,19.70
2023-08-15T01:26:10.802Z,19.80
2023-08-15T01:28:39.972Z,19.70
2023-08-15T01:31:15.495Z,19.60
2023-08-15T01:33:50.213Z,19.60
2023-08-15T01:36:24.980Z,19.60
2023-08-15T01:38:58.079Z,19.70
2023-08-15T01:41:27.514Z,19.60
2023-08-15T01:43:56.670Z,19.60
2023-08-15T01:46:24.687Z,19.70
2023-08-15T01:48:52.632Z,19.60
2023-08-15T01:51:20.494Z,19.60
2023-08-15T01:53:48.458Z,19.50
2023-08-15T01:56:17.687Z,19.50
2023-08-15T01:58:45.514Z,19.50
2023-08-15T02:01:13.838Z,19.40
2023-08-15T02:03:50.594Z,19.40
2023-08-15T02:06:18.432Z,19.40
2023-08-15T02:08:46.346Z,19.40
2023-08-15T02:11:14.258Z,19.40
2023-08-15T02:13:43.628Z,19.20
2023-08-15T02:16:11.552Z,19.20
2023-08-15T02:18:42.088Z,19.10
2023-08-15T02:21:10.409Z,19.10
2023-08-15T02:23:38.356Z,19.00
2023-08-15T02:26:06.416Z,19.10
2023-08-15T02:28:34.407Z,19.10
2023-08-15T02:31:06.125Z,19.00
2023-08-15T02:33:34.182Z,19.00
2023-08-15T02:36:07.550Z,18.90
2023-08-15T02:38:36.004Z,18.90
2023-08-15T02:41:04.233Z,18.80
2023-08-15T02:43:32.250Z,18.90
2023-08-15T02:46:00.178Z,18.80
2023-08-15T02:48:29.390Z,18.70
2023-08-15T02:50:57.333Z,18.90
2023-08-15T02:53:25.240Z,18.80
2023-08-15T02:55:53.252Z,18.90
2023-08-15T02:58:21.252Z,18.90
2023-08-15T03:00:49.261Z,18.90
2023-08-15T03:03:17.272Z,18.90
2023-08-15T03:05:46.585Z,18.90
2023-08-15T03:08:14.423Z,19.00
2023-08-15T03:10:43.706Z,18.90
2023-08-15T03:13:11.563Z,18.90
2023-08-15T03:15:39.894Z,19.00
2023-08-15T03:18:08.117Z,19.00
2023-08-15T03:20:36.284Z,19.00
2023-08-15T03:23:06.034Z,18.90
2023-08-15T03:25:33.754Z,18.90
2023-08-15T03:28:01.518Z,18.90
2023-08-15T03:30:29.473Z,18.90
2023-08-15T03:32:57.274Z,18.90
2023-08-15T03:35:25.000Z,18.80
2023-08-15T03:37:52.764Z,18.80
2023-08-15T03:40:21.819Z,18.80
2023-08-15T03:42:49.617Z,18.70
2023-08-15T03:45:17.475Z,18.70
2023-08-15T03:47:45.275Z,18.70
2023-08-15T03:50:12.980Z,18.60
2023-08-15T03:52:40.712Z,18.60
2023-08-15T03:55:08.817Z,18.60
2023-08-15T03:57:38.003Z,18.70
2023-08-15T04:00:07.775Z,18.70
2023-08-15T04:02:35.707Z,18.60
2023-08-15T04:05:07.813Z,18.60
2023-08-15T04:07:35.710Z,18.60
2023-08-15T04:10:03.439Z,18.70
2023-08-15T04:12:31.228Z,18.60
2023-08-15T04:15:00.527Z,18.70
2023-08-15T04:17:28.407Z,18.70
2023-08-15T04:19:56.248Z,18.70
2023-08-15T04:22:24.093Z,18.80
2023-08-15T04:24:51.828Z,18.80
2023-08-15T04:27:19.881Z,18.70
2023-08-15T04:29:48.057Z,18.70
2023-08-15T04:32:17.158Z,18.60
2023-08-15T04:34:44.915Z,18.60
2023-08-15T04:37:12.782Z,18.70
2023-08-15T04:39:40.744Z,18.70
2023-08-15T04:42:08.611Z,18.70
2023-08-15T04:44:36.344Z,18.70
2023-08-15T04:47:05.352Z,18.60
2023-08-15T04:49:35.172Z,18.50
2023-08-15T04:52:02.925Z,18.40
2023-08-15T04:54:30.656Z,18.50
2023-08-15T04:56:58.409Z,18.60
2023-08-15T04:59:26.153Z,18.60
2023-08-15T05:01:54.110Z,18.60
2023-08-15T05:04:21.850Z,18.70
2023-08-15T05:06:50.908Z,18.70
2023-08-15T05:09:19.660Z,18.70
2023-08-15T05:11:47.847Z,18.70
2023-08-15T05:14:16.273Z,18.70
2023-08-15T05:16:44.008Z,18.80
2023-08-15T05:19:11.750Z,18.80
2023-08-15T05:21:39.660Z,18.90
2023-08-15T05:24:09.307Z,18.90
2023-08-15T05:26:37.039Z,18.90
2023-08-15T05:29:05.185Z,19.00
2023-08-15T05:31:32.950Z,19.00
2023-08-15T05:34:00.709Z,19.00
2023-08-15T05:36:28.450Z,19.10
2023-08-15T05:38:56.236Z,19.10
2023-08-15T05:41:25.310Z,19.20
2023-08-15T05:43:53.040Z,19.20
2023-08-15T05:46:20.783Z,19.30
2023-08-15T05:48:48.534Z,19.30
2023-08-15T05:51:16.340Z,19.30
2023-08-15T05:53:44.100Z,19.40
2023-08-15T05:56:11.868Z,19.40
2023-08-15T05:58:41.014Z,19.50
2023-08-15T06:01:09.520Z,19.50
2023-08-15T06:03:52.093Z,19.60
2023-08-15T06:06:21.056Z,19.70
2023-08-15T06:08:49.363Z,19.80
2023-08-15T06:11:17.309Z,19.90
2023-08-15T06:13:46.371Z,19.90
2023-08-15T06:16:14.287Z,19.90
2023-08-15T06:18:42.059Z,20.10
2023-08-15T06:21:09.835Z,20.10
2023-08-15T06:23:37.547Z,20.20
2023-08-15T06:26:05.332Z,20.20
2023-08-15T06:28:33.126Z,20.20
2023-08-15T06:31:02.224Z,20.30
2023-08-15T06:33:30.019Z,20.40
2023-08-15T06:35:57.755Z,20.50
2023-08-15T06:38:26.519Z,20.60
2023-08-15T06:40:54.361Z,20.60
2023-08-15T06:43:22.129Z,20.60
2023-08-15T06:45:50.081Z,20.70
2023-08-15T06:48:19.239Z,20.70
2023-08-15T06:50:47.703Z,20.90
2023-08-15T06:53:15.571Z,20.90
2023-08-15T06:55:43.342Z,20.90
2023-08-15T06:58:11.149Z,21.10
2023-08-15T07:00:38.956Z,21.10
2023-08-15T07:03:07.167Z,21.20
2023-08-15T07:05:36.665Z,21.20
2023-08-15T07:08:05.299Z,21.30
2023-08-15T07:10:33.970Z,21.40
2023-08-15T07:13:01.775Z,21.50
2023-08-15T07:15:29.691Z,21.50
2023-08-15T07:17:57.619Z,21.70
2023-08-15T07:20:25.440Z,21.80
2023-08-15T07:22:56.319Z,22.00
2023-08-15T07:25:24.714Z,22.10
2023-08-15T07:27:52.479Z,22.30
2023-08-15T07:30:20.261Z,22.30
2023-08-15T07:32:48.036Z,22.40
2023-08-15T07:35:15.869Z,22.60
2023-08-15T07:37:43.593Z,22.70
2023-08-15T07:40:21.808Z,22.80
2023-08-15T07:42:50.827Z,22.90
2023-08-15T07:45:18.690Z,23.00
2023-08-15T07:47:49.250Z,23.10
2023-08-15T07:50:18.433Z,23.30
2023-08-15T07:52:47.086Z,23.40
2023-08-15T07:55:17.088Z,23.60
2023-08-15T07:57:45.907Z,23.60
2023-08-15T08:00:15.412Z,23.70
2023-08-15T08:02:45.216Z,23.80
2023-08-15T08:05:15.529Z,24.00
2023-08-15T08:07:44.635Z,24.10
2023-08-15T08:10:12.935Z,24.30
2023-08-15T08:12:42.004Z,24.40
2023-08-15T08:15:10.586Z,24.60
2023-08-15T08:17:38.523Z,24.70
2023-08-15T08:20:13.140Z,24.90
2023-08-15T08:22:41.242Z,25.10
2023-08-15T08:25:17.260Z,25.40
2023-08-15T08:27:46.836Z,25.50
2023-08-15T08:30:15.622Z,25.80
2023-08-15T08:32:43.548Z,26.10
2023-08-15T08:35:12.227Z,26.70
2023-08-15T08:37:40.053Z,26.90
2023-08-15T08:40:09.657Z,26.90
2023-08-15T08:42:37.738Z,27.20
2023-08-15T08:45:10.088Z,27.90
2023-08-15T08:47:39.536Z,28.30
2023-08-15T08:50:11.132Z,28.60
2023-08-15T08:52:41.548Z,28.70
2023-08-15T08:55:10.136Z,28.90
2023-08-15T08:57:38.452Z,29.90
2023-08-15T09:00:10.607Z,32.30
2023-08-15T09:02:38.503Z,34.60
2023-08-15T09:05:08.722Z,36.10
2023-08-15T09:07:36.957Z,36.90
2023-08-15T09:10:07.066Z,37.70
2023-08-15T09:12:36.118Z,38.50
2023-08-15T09:15:07.826Z,39.00
2023-08-15T09:17:35.601Z,39.40
2023-08-15T09:20:11.755Z,40.10
2023-08-15T09:22:42.247Z,41.10
2023-08-15T09:25:11.229Z,41.40
2023-08-15T09:27:39.675Z,41.70
2023-08-15T09:30:13.828Z,42.10
2023-08-15T09:32:42.142Z,41.70
2023-08-15T09:35:11.178Z,41.90
2023-08-15T09:37:42.765Z,42.10
2023-08-15T09:40:13.956Z,41.10
2023-08-15T09:42:42.404Z,39.20
2023-08-15T09:45:13.134Z,37.10
2023-08-15T09:47:41.680Z,34.90
2023-08-15T09:50:11.975Z,34.70
2023-08-15T09:52:42.049Z,35.40
2023-08-15T09:55:11.718Z,36.60
2023-08-15T09:57:40.201Z,36.80
2023-08-15T10:00:13.366Z,37.60
2023-08-15T10:02:44.963Z,36.50
2023-08-15T10:05:14.192Z,34.90
2023-08-15T10:07:43.286Z,33.30
2023-08-15T10:10:11.929Z,32.10
2023-08-15T10:12:41.973Z,31.10
2023-08-15T10:15:11.960Z,30.50
2023-08-15T10:17:40.429Z,30.20
2023-08-15T10:20:12.668Z,30.10
2023-08-15T10:22:41.567Z,29.80
2023-08-15T10:25:33.961Z,30.40
2023-08-15T10:28:04.973Z,31.40
2023-08-15T10:30:35.173Z,31.20
2023-08-15T10:33:13.990Z,31.00
2023-08-15T10:35:51.029Z,30.70
2023-08-15T10:38:21.410Z,30.90
2023-08-15T10:40:49.859Z,31.10
2023-08-15T10:43:17.911Z,31.50
2023-08-15T10:45:47.188Z,31.80
2023-08-15T10:48:15.479Z,31.50
2023-08-15T10:50:49.771Z,31.00
2023-08-15T10:53:19.035Z,30.40
2023-08-15T10:55:48.654Z,29.90
2023-08-15T10:58:18.420Z,29.50
2023-08-15T11:00:46.296Z,29.30
2023-08-15T11:03:14.159Z,29.00
2023-08-15T11:05:41.960Z,28.90
2023-08-15T11:08:19.455Z,28.60
2023-08-15T11:10:49.817Z,28.40
2023-08-15T11:13:18.522Z,28.20
2023-08-15T11:15:47.853Z,28.10
2023-08-15T11:18:21.937Z,28.30
2023-08-15T11:20:49.885Z,28.50
2023-08-15T11:23:20.182Z,28.90
2023-08-15T11:25:47.920Z,29.50
2023-08-15T11:28:15.664Z,30.40
2023-08-15T11:30:43.438Z,31.00
2023-08-15T11:33:11.880Z,31.30
2023-08-15T11:35:39.981Z,31.40
2023-08-15T11:38:12.285Z,31.40
2023-08-15T11:40:41.340Z,31.40
2023-08-15T11:43:09.164Z,31.40
2023-08-15T11:45:37.623Z,31.40
2023-08-15T11:48:06.641Z,31.40
2023-08-15T11:50:44.076Z,31.40
2023-08-15T11:53:14.014Z,31.50
2023-08-15T11:55:43.627Z,31.70
2023-08-15T11:58:27.623Z,31.50
2023-08-15T12:00:56.512Z,31.70
2023-08-15T12:03:26.714Z,31.90
2023-08-15T12:05:55.693Z,32.00
2023-08-15T12:08:25.326Z,31.90
2023-08-15T12:10:55.018Z,31.80
2023-08-15T12:13:31.316Z,31.80
2023-08-15T12:15:59.296Z,32.00
2023-08-15T12:18:27.139Z,32.10
2023-08-15T12:20:55.087Z,32.20
2023-08-15T12:23:28.722Z,32.20
2023-08-15T12:25:58.537Z,32.20
2023-08-15T12:28:28.972Z,32.50
2023-08-15T12:30:57.626Z,32.30
2023-08-15T12:35:56.023Z,32.20
2023-08-15T12:38:24.260Z,32.00
2023-08-15T12:40:52.112Z,31.70
2023-08-15T12:43:21.365Z,31.60
2023-08-15T12:45:49.958Z,31.70
2023-08-15T12:48:17.773Z,31.70
2023-08-15T12:50:45.610Z,31.70
2023-08-15T12:53:14.009Z,31.60
2023-08-15T12:55:41.860Z,31.70
2023-08-15T12:58:10.166Z,31.50
2023-08-15T13:00:41.854Z,31.40
2023-08-15T13:03:10.588Z,31.30
2023-08-15T13:05:38.553Z,31.40
2023-08-15T13:08:06.507Z,31.40
2023-08-15T13:10:34.305Z,31.40
2023-08-15T13:13:02.043Z,31.40
2023-08-15T13:15:29.782Z,31.40
2023-08-15T13:17:58.908Z,31.30
2023-08-15T13:20:26.940Z,31.40
2023-08-15T13:22:55.540Z,31.40
2023-08-15T13:25:23.317Z,31.20
2023-08-15T13:27:51.160Z,31.10
2023-08-15T13:30:18.953Z,30.90
2023-08-15T13:32:46.764Z,30.90
2023-08-15T13:35:15.840Z,30.90
2023-08-15T13:37:43.806Z,30.80
2023-08-15T13:40:12.714Z,30.80
2023-08-15T13:42:41.707Z,30.80
2023-08-15T13:45:10.650Z,30.80
2023-08-15T13:47:38.849Z,30.80
2023-08-15T13:50:08.406Z,30.80
2023-08-15T13:52:38.385Z,30.80
2023-08-15T13:55:07.517Z,30.80
2023-08-15T13:57:35.304Z,30.80
2023-08-15T14:00:04.552Z,30.80
2023-08-15T14:02:35.327Z,30.80
2023-08-15T14:05:04.979Z,30.80
2023-08-15T14:07:33.826Z,30.80
2023-08-15T14:10:04.203Z,30.80
2023-08-15T14:12:32.069Z,30.90
2023-08-15T14:14:59.812Z,30.80
2023-08-15T14:17:27.627Z,30.80
2023-08-15T14:19:55.399Z,30.80
2023-08-15T14:22:23.344Z,30.80
2023-08-15T14:24:51.356Z,30.80
2023-08-15T14:27:21.018Z,30.80
2023-08-15T14:29:49.876Z,30.70
2023-08-15T14:32:17.812Z,30.70
2023-08-15T14:34:45.663Z,30.80
2023-08-15T14:37:13.435Z,30.90
2023-08-15T14:39:41.206Z,30.90
2023-08-15T14:42:09.019Z,30.90
2023-08-15T14:44:38.183Z,30.80
2023-08-15T14:47:06.197Z,30.70
2023-08-15T14:49:34.123Z,30.60
2023-08-15T14:52:04.424Z,30.60
2023-08-15T14:54:32.333Z,30.60
2023-08-15T14:57:00.418Z,30.60
2023-08-15T14:59:28.158Z,30.70
2023-08-15T15:01:58.932Z,30.60
2023-08-15T15:04:26.872Z,30.40
2023-08-15T15:06:54.620Z,30.40
2023-08-15T15:09:22.506Z,30.40
2023-08-15T15:11:50.402Z,30.30
2023-08-15T15:14:18.158Z,30.30
2023-08-15T15:16:47.320Z,30.40
2023-08-15T15:19:16.422Z,30.40
2023-08-15T15:21:44.233Z,30.40
2023-08-15T15:24:12.000Z,30.20
2023-08-15T15:26:39.765Z,30.20
2023-08-15T15:29:07.471Z,30.20
2023-08-15T15:31:35.282Z,30.20
2023-08-15T15:34:03.064Z,30.20
2023-08-15T15:36:32.393Z,30.20
2023-08-15T15:39:00.167Z,30.00
2023-08-15T15:41:27.911Z,29.90
2023-08-15T15:43:55.647Z,29.90
2023-08-15T15:46:23.412Z,29.90
2023-08-15T15:48:51.275Z,29.90
2023-08-15T15:51:19.056Z,29.80
2023-08-15T15:53:48.219Z,29.70
2023-08-15T15:56:16.016Z,29.70
2023-08-15T15:58:43.857Z,29.60
2023-08-15T16:01:11.630Z,29.40
2023-08-15T16:03:39.707Z,29.30
2023-08-15T16:06:07.463Z,29.10
2023-08-15T16:08:35.311Z,29.00
2023-08-15T16:11:04.421Z,29.00
2023-08-15T16:13:32.294Z,28.90
2023-08-15T16:16:00.156Z,28.80
2023-08-15T16:18:28.283Z,28.80
2023-08-15T16:20:56.073Z,28.80
2023-08-15T16:23:23.996Z,28.70
2023-08-15T16:25:51.830Z,28.50
2023-08-15T16:28:20.884Z,28.50
2023-08-15T16:30:48.617Z,28.50
2023-08-15T16:33:16.671Z,28.40
2023-08-15T16:35:44.455Z,28.30
2023-08-15T16:38:13.600Z,28.10
2023-08-15T16:40:43.608Z,28.00
2023-08-15T16:43:13.104Z,27.90
2023-08-15T16:45:42.534Z,27.80
2023-08-15T16:48:11.052Z,27.60
2023-08-15T16:50:39.539Z,27.40
2023-08-15T16:53:07.834Z,27.20
2023-08-15T16:55:35.760Z,27.00
2023-08-15T16:58:03.666Z,27.00
2023-08-15T17:00:31.741Z,27.00
2023-08-15T17:03:01.034Z,27.00
2023-08-15T17:05:29.011Z,27.00
2023-08-15T17:07:57.012Z,26.90
2023-08-15T17:10:25.285Z,26.90
2023-08-15T17:12:53.262Z,26.70
2023-08-15T17:15:21.090Z,26.60
2023-08-15T17:17:48.967Z,26.50
2023-08-15T17:20:18.335Z,26.40
2023-08-15T17:22:46.632Z,26.30
2023-08-15T17:25:14.440Z,26.30
2023-08-15T17:27:42.354Z,26.10
2023-08-15T17:30:11.378Z,26.10
2023-08-15T17:32:39.385Z,26.00
2023-08-15T17:35:08.307Z,26.00
2023-08-15T17:37:37.429Z,25.90
2023-08-15T17:40:06.138Z,25.80
2023-08-15T17:42:34.171Z,25.80
2023-08-15T17:45:01.974Z,25.80
2023-08-15T17:47:29.827Z,25.80
2023-08-15T17:49:57.700Z,25.80
2023-08-15T17:52:25.481Z,25.70
2023-08-15T17:54:54.702Z,25.60
2023-08-15T17:57:22.651Z,25.50
2023-08-15T17:59:50.883Z,25.40
2023-08-15T18:02:18.690Z,25.30
2023-08-15T18:04:46.556Z,25.30
2023-08-15T18:07:14.640Z,25.20
2023-08-15T18:09:42.526Z,25.20
2023-08-15T18:12:11.718Z,25.20
2023-08-15T18:14:41.665Z,25.30
2023-08-15T18:17:09.615Z,25.20
2023-08-15T18:19:37.403Z,25.20
2023-08-15T18:24:33.577Z,25.20
2023-08-15T18:27:03.111Z,25.20
2023-08-15T18:29:32.247Z,25.10
2023-08-15T18:32:00.222Z,25.10
2023-08-15T18:34:28.101Z,25.00
2023-08-15T18:36:56.056Z,25.00
2023-08-15T18:39:24.025Z,25.00
2023-08-15T18:41:51.846Z,25.00
2023-08-15T18:44:19.816Z,25.00
2023-08-15T18:46:51.417Z,24.80
2023-08-15T18:49:19.812Z,24.70
2023-08-15T18:51:47.745Z,24.70
2023-08-15T18:54:15.705Z,24.80
2023-08-15T18:56:43.602Z,24.80
2023-08-15T18:59:11.442Z,24.90
2023-08-15T19:01:39.577Z,24.90
2023-08-15T19:04:08.854Z,24.70
2023-08-15T19:06:36.672Z,24.50
2023-08-15T19:09:04.849Z,24.50
2023-08-15T19:11:32.627Z,24.50
2023-08-15T19:14:00.422Z,24.40
2023-08-15T19:16:28.315Z,24.40
2023-08-15T19:19:00.958Z,24.50
2023-08-15T19:21:30.116Z,24.60
2023-08-15T19:23:58.032Z,24.60
2023-08-15T19:26:25.813Z,24.50
2023-08-15T19:28:55.389Z,24.40
2023-08-15T19:31:23.531Z,24.40
2023-08-15T19:33:51.422Z,24.30
2023-08-15T19:36:19.525Z,24.30
2023-08-15T19:38:48.840Z,24.30
2023-08-15T19:41:17.612Z,24.20
2023-08-15T19:43:45.409Z,24.30
2023-08-15T19:46:13.237Z,24.30
2023-08-15T19:48:41.043Z,24.30
2023-08-15T19:51:08.823Z,24.30
2023-08-15T19:53:36.604Z,24.30
2023-08-15T19:56:05.941Z,24.30
2023-08-15T19:58:33.730Z,24.30
2023-08-15T20:01:01.594Z,24.30
2023-08-15T20:03:29.347Z,24.30
2023-08-15T20:05:57.431Z,24.30
2023-08-15T20:08:25.430Z,24.30
2023-08-15T20:10:53.741Z,24.30
2023-08-15T20:13:23.335Z,24.20
2023-08-15T20:15:54.648Z,24.20
2023-08-15T20:18:22.488Z,24.20
2023-08-15T20:20:52.884Z,24.20
2023-08-15T20:23:20.702Z,24.10
2023-08-15T20:25:48.734Z,24.00
2023-08-15T20:28:18.441Z,24.00
2023-08-15T20:30:47.607Z,24.10
2023-08-15T20:33:15.645Z,24.00
2023-08-15T20:35:43.498Z,24.00
2023-08-15T20:38:11.339Z,24.10
2023-08-15T20:40:39.520Z,24.10
2023-08-15T20:43:07.309Z,24.00
2023-08-15T20:45:35.069Z,24.00
2023-08-15T20:48:04.267Z,24.00
2023-08-15T20:50:32.049Z,23.90
2023-08-15T20:52:59.858Z,23.90
2023-08-15T20:55:28.652Z,23.80
2023-08-15T20:57:56.440Z,23.70
2023-08-15T21:00:24.307Z,23.70
2023-08-15T21:02:52.140Z,23.60
2023-08-15T21:05:21.274Z,23.50
2023-08-15T21:07:49.071Z,23.50
2023-08-15T21:10:17.081Z,23.40
2023-08-15T21:12:44.834Z,23.40
2023-08-15T21:15:12.589Z,23.40
2023-08-15T21:17:40.335Z,23.40
2023-08-15T21:20:09.528Z,23.30
2023-08-15T21:22:38.685Z,23.20
2023-08-15T21:25:07.328Z,23.20
2023-08-15T21:27:35.102Z,23.20
2023-08-15T21:30:02.875Z,23.10
2023-08-15T21:32:30.643Z,23.10
2023-08-15T21:34:59.001Z,23.10
2023-08-15T21:37:26.745Z,23.10
2023-08-15T21:39:55.822Z,23.00
2023-08-15T21:42:24.323Z,22.90
2023-08-15T21:44:52.258Z,22.90
2023-08-15T21:49:47.938Z,22.80
2023-08-15T21:52:16.574Z,22.70
2023-08-15T21:54:44.297Z,22.70
2023-08-15T21:57:13.394Z,22.70
2023-08-15T21:59:41.151Z,22.60
2023-08-15T22:02:09.048Z,22.60
2023-08-15T22:04:37.027Z,22.50
2023-08-15T22:07:05.077Z,22.50
2023-08-15T22:09:32.900Z,22.50
2023-08-15T22:12:00.672Z,22.40
2023-08-15T22:14:29.733Z,22.40
2023-08-15T22:16:57.578Z,22.40
2023-08-15T22:19:25.433Z,22.30
2023-08-15T22:21:53.204Z,22.30
2023-08-15T22:24:20.973Z,22.40
2023-08-15T22:26:49.683Z,22.40
2023-08-15T22:29:17.531Z,22.30
2023-08-15T22:31:46.669Z,22.20
2023-08-15T22:34:16.026Z,22.20
2023-08-15T22:36:45.310Z,22.20
2023-08-15T22:39:13.208Z,22.20
2023-08-15T22:41:41.441Z,22.20
2023-08-15T22:44:10.278Z,22.20
2023-08-15T22:46:38.087Z,22.10
2023-08-15T22:49:07.243Z,22.10
2023-08-15T22:51:34.973Z,22.10
2023-08-15T22:54:02.731Z,22.10
2023-08-15T22:56:30.478Z,22.10
2023-08-15T22:58:58.235Z,22.10
2023-08-15T23:01:26.045Z,22.00
2023-08-15T23:03:53.825Z,22.00
2023-08-15T23:06:22.934Z,22.00
2023-08-15T23:08:50.706Z,22.00
2023-08-15T23:11:19.349Z,21.90
2023-08-15T23:13:47.084Z,21.80
2023-08-15T23:16:14.911Z,21.80
2023-08-15T23:18:42.677Z,21.80
2023-08-15T23:21:10.472Z,21.90
2023-08-15T23:23:39.610Z,21.90
2023-08-15T23:26:07.395Z,22.00
2023-08-15T23:28:35.127Z,22.00
2023-08-15T23:31:02.938Z,22.00
2023-08-15T23:33:30.781Z,22.00
2023-08-15T23:35:58.553Z,22.00
2023-08-15T23:38:26.302Z,21.90
2023-08-15T23:40:55.446Z,21.80
2023-08-15T23:43:23.441Z,21.80
2023-08-15T23:45:51.209Z,21.90
2023-08-15T23:48:18.956Z,21.90
2023-08-15T23:50:47.556Z,21.80
2023-08-15T23:53:15.471Z,21.80
2023-08-15T23:55:43.218Z,21.70
2023-08-15T23:58:12.319Z,21.60
